Airfield :







YOU CAN JOIN US ON...

 
LOGIN :

Register | Disclaimer

   EN    FR    IT 

 









Legend :    VFR   Marginal VFR   IFR   Intensive IFR   Very Intensive IFR
Visi :
Ceiling :
>= 8 km
>= 3000ft
5 to 8 km
1000 to 3000 ft
1500m to 5 km
500 to 1000 ft
800 to 1500m
200 to 500 ft
< 800m
< 200 ft
Symbols :   Thunderstorms  Fog  Heavy snow  Heavy precipitations  Wind > 20 kt






- Airport Elevation : 285 ft
- IATA code : ALB


KALB - Albany International

CURRENT METAR :
  • 161851Z 16005G15KT 10SM BKN034 BKN055 OVC220 16/08 A2975 RMK AO2 SLP076 SHRA DSNT SW T01610083

EXPIRED METARs :
  • 161751Z 16013G18KT 10SM BKN036 BKN055 BKN220 OVC270 17/08 A2977 RMK AO2 SLP082 T01670083 10172 20106 56034
  • 161651Z 15008KT 10SM BKN033 BKN046 17/08 A2980 RMK AO2 SLP091 T01670078

TAF KALB
Valid from the 16 at 18:00 until the 17 at 18:00 UTC


161732Z 1618/1718 15010KT P6SM BKN035 OVC050
FM161900 01012KT 5SM -RA BR OVC025
FM162200 01014KT 2SM RA BR OVC012 WS020/12040KT
FM170300 04014KT 2SM +RA BR OVC008 WS020/09040KT
FM170900 30018G24KT 2SM +RA BR OVC008
FM171200 30020G32KT 2SM -RA OVC015
FM171500 32020G32KT 5SM -SHRA OVC025



MET'MAP, your aeronautical weather chart ! - Copyright ORBIFLY December 2007 - Disclaimer

ORBIFLY MET'MAP TEAM :

Programming & Development : Alexandra Zaïnal
Concept & Development : Baudouin d'Aumeries
Co-Development & Prog : Marc-Olivier Méhu
Technical & hardware support : Manuel Goepfert

Contact : metmap@orbifly.com




SOURCES & CREDITS :

   NOAA